Time;durP1;ratioP1;P1;durP2;ratioP2;P2;SDS_P1;SDS_P2;PMS_P1;PMS_P2;Temp;Humidity;BMP_temperature;BMP_pressure;BME280_temperature;BME280_humidity;BME280_pressure;Samples;Min_cycle;Max_cycle;Signal;HPM_P1;HPM_P2
2022/05/06 00:01:27;;;;;;;29.40;9.85;;;;;;;;;;4998590;28;20100;-66
2022/05/06 00:03:53;;;;;;;67.35;10.32;;;;;;;;;;4999570;28;20153;-66
2022/05/06 00:06:21;;;;;;;51.75;9.75;;;;;;;;;;4983619;28;20044;-66
2022/05/06 00:08:47;;;;;;;67.20;9.85;;;;;;;;;;4996455;28;20189;-66
2022/05/06 00:11:13;;;;;;;70.68;8.98;;;;;;;;;;5004645;28;20133;-66
2022/05/06 00:13:40;;;;;;;45.53;9.13;;;;;;;;;;4992577;28;20041;-66
2022/05/06 00:16:06;;;;;;;174.68;13.40;;;;;;;;;;4997429;28;20081;-66
2022/05/06 00:18:32;;;;;;;83.72;12.27;;;;;;;;;;4994601;28;20140;-66
2022/05/06 00:20:58;;;;;;;12.27;9.60;;;;;;;;;;4999904;28;20046;-66
2022/05/06 00:23:25;;;;;;;8.93;8.02;;;;;;;;;;4997037;28;20056;-67
2022/05/06 00:25:51;;;;;;;11.13;8.52;;;;;;;;;;5002431;28;20050;-66
2022/05/06 00:28:18;;;;;;;14.77;9.57;;;;;;;;;;5001072;28;20049;-66
2022/05/06 00:30:44;;;;;;;13.23;8.50;;;;;;;;;;4999543;28;20068;-66
2022/05/06 00:33:10;;;;;;;35.53;8.02;;;;;;;;;;4995493;28;20058;-66
2022/05/06 00:35:37;;;;;;;13.35;9.60;;;;;;;;;;5015065;28;20049;-66
2022/05/06 00:38:03;;;;;;;12.73;9.18;;;;;;;;;;5017676;28;20050;-66
2022/05/06 00:40:29;;;;;;;20.90;12.93;;;;;;;;;;5006654;28;20057;-66
2022/05/06 00:42:56;;;;;;;28.58;14.05;;;;;;;;;;5013193;28;20056;-66
2022/05/06 00:45:23;;;;;;;33.60;15.82;;;;;;;;;;5019939;28;20123;-66
2022/05/06 00:47:50;;;;;;;99.15;16.80;;;;;;;;;;5011994;28;20064;-66
2022/05/06 00:50:16;;;;;;;23.88;13.90;;;;;;;;;;4989141;28;20482;-66
2022/05/06 00:52:42;;;;;;;32.33;14.85;;;;;;;;;;5012676;28;20498;-66
2022/05/06 00:55:09;;;;;;;19.02;13.98;;;;;;;;;;5004019;28;20419;-66
2022/05/06 00:57:36;;;;;;;31.55;15.95;;;;;;;;;;5002125;28;20058;-66
2022/05/06 01:00:19;;;;;;;19.25;13.80;;;;;;;;;;5002259;28;20109;-66
2022/05/06 01:02:47;;;;;;;21.13;13.77;;;;;;;;;;5004585;28;20061;-66
2022/05/06 01:05:14;;;;;;;19.08;13.57;;;;;;;;;;5002734;28;20371;-66
2022/05/06 01:07:41;;;;;;;21.92;14.90;;;;;;;;;;5013409;28;20037;-66
2022/05/06 01:10:07;;;;;;;21.05;15.20;;;;;;;;;;5013383;28;20088;-66
2022/05/06 01:12:34;;;;;;;28.50;18.13;;;;;;;;;;5012503;28;20128;-66
2022/05/06 01:15:00;;;;;;;25.10;17.52;;;;;;;;;;5011594;28;20110;-66
2022/05/06 01:17:26;;;;;;;24.73;16.17;;;;;;;;;;5012966;28;20051;-66
2022/05/06 01:19:52;;;;;;;21.58;12.98;;;;;;;;;;5004595;28;20053;-66
2022/05/06 01:22:19;;;;;;;29.85;18.33;;;;;;;;;;5005950;28;20057;-66
2022/05/06 01:24:45;;;;;;;32.88;21.63;;;;;;;;;;5012185;28;20431;-66
2022/05/06 01:27:19;;;;;;;34.25;22.10;;;;;;;;;;5009446;28;20041;-66
2022/05/06 01:29:46;;;;;;;27.23;19.17;;;;;;;;;;5005648;28;20544;-66
2022/05/06 01:32:13;;;;;;;26.05;19.48;;;;;;;;;;4996111;28;20060;-66
2022/05/06 01:34:41;;;;;;;25.80;19.80;;;;;;;;;;4999191;28;20080;-66
2022/05/06 01:37:07;;;;;;;24.88;20.25;;;;;;;;;;5020095;28;20052;-66
2022/05/06 01:39:36;;;;;;;32.33;23.95;;;;;;;;;;5008869;28;20044;-66
2022/05/06 01:42:05;;;;;;;36.35;22.85;;;;;;;;;;4997977;28;20140;-66
2022/05/06 01:44:36;;;;;;;34.88;22.85;;;;;;;;;;4996983;28;20482;-66
2022/05/06 01:47:03;;;;;;;39.67;24.67;;;;;;;;;;5014584;28;20042;-66
2022/05/06 01:49:30;;;;;;;40.58;26.58;;;;;;;;;;5000588;28;20396;-66
2022/05/06 01:51:58;;;;;;;40.33;25.40;;;;;;;;;;5012458;28;20038;-66
2022/05/06 01:54:26;;;;;;;50.70;30.00;;;;;;;;;;5014306;28;20058;-66
2022/05/06 01:56:52;;;;;;;65.07;33.50;;;;;;;;;;5014636;28;20116;-66
2022/05/06 01:59:18;;;;;;;67.65;34.42;;;;;;;;;;5011377;28;20050;-67
2022/05/06 02:01:45;;;;;;;92.93;40.58;;;;;;;;;;5013770;28;20485;-66
2022/05/06 02:06:56;;;;;;;82.13;36.33;;;;;;;;;;5011883;28;20045;-66
2022/05/06 02:09:22;;;;;;;83.25;38.75;;;;;;;;;;5013312;28;20034;-66
2022/05/06 02:11:48;;;;;;;84.03;36.17;;;;;;;;;;5012637;28;20076;-66
2022/05/06 02:14:15;;;;;;;84.53;37.55;;;;;;;;;;4995575;28;20096;-66
2022/05/06 02:16:41;;;;;;;77.70;35.22;;;;;;;;;;5012861;28;20057;-66
2022/05/06 02:19:07;;;;;;;81.65;37.20;;;;;;;;;;4996878;28;20037;-66
2022/05/06 02:21:34;;;;;;;80.95;38.58;;;;;;;;;;5011318;28;20069;-66
2022/05/06 02:24:00;;;;;;;87.05;42.15;;;;;;;;;;5012090;28;20076;-66
2022/05/06 02:26:26;;;;;;;85.32;40.40;;;;;;;;;;5013131;28;20049;-66
2022/05/06 02:28:53;;;;;;;104.00;47.72;;;;;;;;;;5009108;28;20061;-66
2022/05/06 02:34:04;;;;;;;162.82;55.45;;;;;;;;;;5001687;28;20061;-66
2022/05/06 02:36:30;;;;;;;210.75;57.50;;;;;;;;;;5016840;28;20049;-66
2022/05/06 02:38:56;;;;;;;144.00;56.38;;;;;;;;;;5012767;28;20140;-66
2022/05/06 02:41:22;;;;;;;203.45;60.85;;;;;;;;;;5012336;28;20490;-67
2022/05/06 02:43:48;;;;;;;187.18;60.22;;;;;;;;;;5002055;28;20397;-67
2022/05/06 02:46:14;;;;;;;280.55;57.88;;;;;;;;;;5002742;28;20464;-64
2022/05/06 02:48:41;;;;;;;167.40;55.42;;;;;;;;;;5010906;28;20826;-64
2022/05/06 02:51:08;;;;;;;206.90;58.25;;;;;;;;;;4994945;28;20091;-65
2022/05/06 02:53:34;;;;;;;235.85;61.85;;;;;;;;;;5009553;28;20467;-64
2022/05/06 02:56:00;;;;;;;135.00;53.88;;;;;;;;;;4994072;28;20117;-64
2022/05/06 02:58:26;;;;;;;243.70;59.47;;;;;;;;;;5012672;28;20103;-64
2022/05/06 03:00:53;;;;;;;164.27;54.75;;;;;;;;;;5017828;28;20200;-66
2022/05/06 03:03:19;;;;;;;271.52;54.80;;;;;;;;;;5013270;28;20468;-66
2022/05/06 03:05:45;;;;;;;434.40;64.78;;;;;;;;;;5015526;28;20052;-66
2022/05/06 03:08:11;;;;;;;305.17;49.15;;;;;;;;;;5002248;28;20072;-66
2022/05/06 03:10:37;;;;;;;359.35;52.78;;;;;;;;;;4994226;28;20046;-66
2022/05/06 03:13:03;;;;;;;408.38;56.25;;;;;;;;;;5016342;28;20057;-66
2022/05/06 03:15:30;;;;;;;522.85;65.78;;;;;;;;;;5021806;28;20037;-66
2022/05/06 03:17:56;;;;;;;262.75;52.38;;;;;;;;;;5017228;28;20530;-66
2022/05/06 03:20:22;;;;;;;359.90;48.28;;;;;;;;;;5001429;28;20397;-66
2022/05/06 03:22:50;;;;;;;366.77;49.15;;;;;;;;;;5016454;28;20053;-66
2022/05/06 03:25:16;;;;;;;157.88;43.53;;;;;;;;;;5004830;28;20593;-66
2022/05/06 03:27:59;;;;;;;439.30;57.63;;;;;;;;;;5020185;28;20049;-66
2022/05/06 03:30:25;;;;;;;424.08;59.00;;;;;;;;;;5014733;28;20062;-67
2022/05/06 03:32:55;;;;;;;466.23;63.35;;;;;;;;;;5024371;28;20096;-66
2022/05/06 03:35:21;;;;;;;608.10;69.63;;;;;;;;;;5020581;28;20056;-66
2022/05/06 03:37:48;;;;;;;540.08;60.70;;;;;;;;;;5012966;28;20092;-66
2022/05/06 03:40:15;;;;;;;406.40;57.17;;;;;;;;;;5012502;28;20141;-66
2022/05/06 03:42:41;;;;;;;365.73;55.80;;;;;;;;;;5015182;28;20046;-66
2022/05/06 03:45:09;;;;;;;328.50;49.55;;;;;;;;;;5020583;28;20049;-66
2022/05/06 03:47:35;;;;;;;403.60;52.13;;;;;;;;;;5014035;28;20068;-66
2022/05/06 03:52:48;;;;;;;363.88;49.88;;;;;;;;;;5013890;28;20041;-66
2022/05/06 03:55:15;;;;;;;278.98;43.80;;;;;;;;;;5014518;28;20037;-66
2022/05/06 03:57:42;;;;;;;284.45;43.17;;;;;;;;;;5016320;28;20124;-66
2022/05/06 04:00:09;;;;;;;183.13;39.03;;;;;;;;;;5012843;28;20049;-66
2022/05/06 04:02:37;;;;;;;156.68;37.63;;;;;;;;;;5018796;28;20053;-66
2022/05/06 04:05:04;;;;;;;167.50;37.85;;;;;;;;;;5007979;28;20556;-66
2022/05/06 04:07:30;;;;;;;330.60;46.00;;;;;;;;;;5000213;28;20088;-66
2022/05/06 04:09:56;;;;;;;299.50;41.78;;;;;;;;;;4997168;28;20060;-66
2022/05/06 04:12:23;;;;;;;156.38;36.97;;;;;;;;;;5012761;28;20050;-66
2022/05/06 04:14:50;;;;;;;225.60;41.22;;;;;;;;;;4997866;28;20041;-66
2022/05/06 04:17:17;;;;;;;125.70;36.78;;;;;;;;;;5013987;28;20137;-66
2022/05/06 04:25:15;;;;;;;98.90;24.60;;;;;;;;;;4997792;28;20057;-66
2022/05/06 04:27:42;;;;;;;107.93;25.27;;;;;;;;;;4999974;28;20072;-66
2022/05/06 04:30:08;;;;;;;75.55;20.42;;;;;;;;;;5018805;28;20034;-66
2022/05/06 04:32:34;;;;;;;62.55;19.65;;;;;;;;;;5011420;28;20120;-66
2022/05/06 04:35:04;;;;;;;43.85;17.20;;;;;;;;;;5014680;28;20045;-66
2022/05/06 04:37:30;;;;;;;66.30;17.05;;;;;;;;;;5016462;28;20045;-66
2022/05/06 04:39:57;;;;;;;36.72;14.85;;;;;;;;;;5001873;28;20055;-66
2022/05/06 04:42:23;;;;;;;57.40;16.10;;;;;;;;;;4996845;28;20045;-66
2022/05/06 04:44:50;;;;;;;67.22;14.45;;;;;;;;;;5004537;28;20342;-66
2022/05/06 04:47:16;;;;;;;64.13;13.85;;;;;;;;;;5013636;28;20317;-66
2022/05/06 04:49:42;;;;;;;35.55;14.20;;;;;;;;;;5011926;28;20042;-66
2022/05/06 04:52:09;;;;;;;37.88;14.13;;;;;;;;;;5011855;28;20173;-66
2022/05/06 04:54:35;;;;;;;71.65;15.82;;;;;;;;;;5009848;28;20034;-66
2022/05/06 04:57:01;;;;;;;32.15;14.48;;;;;;;;;;5018330;28;20078;-66
2022/05/06 04:59:27;;;;;;;57.92;14.88;;;;;;;;;;5015497;28;20078;-66
2022/05/06 05:01:54;;;;;;;45.17;14.18;;;;;;;;;;5012563;28;20447;-66
2022/05/06 05:04:27;;;;;;;30.70;13.85;;;;;;;;;;5003622;28;20049;-66
2022/05/06 05:06:54;;;;;;;27.63;13.55;;;;;;;;;;5001579;28;20125;-66
2022/05/06 05:09:20;;;;;;;36.45;15.60;;;;;;;;;;4997764;28;20050;-64
2022/05/06 05:11:47;;;;;;;48.65;16.23;;;;;;;;;;4995199;28;20050;-66
2022/05/06 05:14:14;;;;;;;43.75;15.20;;;;;;;;;;5015588;28;20173;-65
2022/05/06 05:16:40;;;;;;;36.88;15.38;;;;;;;;;;4999576;28;20060;-66
2022/05/06 05:19:06;;;;;;;41.50;12.38;;;;;;;;;;5004053;28;20120;-65
2022/05/06 05:21:33;;;;;;;28.33;11.93;;;;;;;;;;5018855;28;20334;-66
2022/05/06 05:24:00;;;;;;;50.80;12.98;;;;;;;;;;5015782;28;20583;-65
2022/05/06 05:26:26;;;;;;;28.20;11.55;;;;;;;;;;4987791;28;20669;-66
2022/05/06 05:28:53;;;;;;;26.63;12.07;;;;;;;;;;5011519;28;20049;-66
2022/05/06 05:31:19;;;;;;;36.75;15.55;;;;;;;;;;5011637;28;20133;-65
2022/05/06 05:33:45;;;;;;;49.22;14.75;;;;;;;;;;5014334;28;20048;-65
2022/05/06 05:36:11;;;;;;;44.85;13.45;;;;;;;;;;5004488;28;20049;-66
2022/05/06 05:38:38;;;;;;;50.15;15.80;;;;;;;;;;5010484;28;20052;-66
2022/05/06 05:41:06;;;;;;;44.55;18.85;;;;;;;;;;5014809;28;20072;-65
2022/05/06 05:49:02;;;;;;;48.58;15.43;;;;;;;;;;5002458;28;20061;-65
2022/05/06 05:51:28;;;;;;;29.77;13.90;;;;;;;;;;5012519;28;20046;-65
2022/05/06 05:53:54;;;;;;;31.75;16.13;;;;;;;;;;5021431;28;20068;-65
2022/05/06 05:56:21;;;;;;;27.70;14.85;;;;;;;;;;5001651;28;20057;-65
2022/05/06 05:58:49;;;;;;;25.23;14.23;;;;;;;;;;5011070;28;20073;-65
2022/05/06 06:01:16;;;;;;;30.58;14.63;;;;;;;;;;5008101;28;20065;-63
2022/05/06 06:03:42;;;;;;;31.58;14.18;;;;;;;;;;5014590;28;20037;-65
2022/05/06 06:06:08;;;;;;;22.77;12.68;;;;;;;;;;5013717;28;20030;-64
2022/05/06 06:08:35;;;;;;;21.88;12.40;;;;;;;;;;5013976;28;20046;-65
2022/05/06 06:11:02;;;;;;;24.15;13.57;;;;;;;;;;5012941;28;20076;-65
2022/05/06 06:13:30;;;;;;;25.90;12.80;;;;;;;;;;4984698;28;20042;-65
2022/05/06 06:15:56;;;;;;;21.75;12.43;;;;;;;;;;5009942;28;20054;-64
2022/05/06 06:18:26;;;;;;;20.27;12.13;;;;;;;;;;5013187;28;20344;-65
2022/05/06 06:20:55;;;;;;;24.38;12.73;;;;;;;;;;5000758;28;20046;-65
2022/05/06 06:23:21;;;;;;;20.30;12.43;;;;;;;;;;5014427;28;20080;-65
2022/05/06 06:25:48;;;;;;;22.08;13.30;;;;;;;;;;5011888;28;20122;-65
2022/05/06 06:28:14;;;;;;;28.77;13.73;;;;;;;;;;5009637;28;20393;-65
2022/05/06 06:30:41;;;;;;;24.55;14.75;;;;;;;;;;5009979;28;20054;-65
2022/05/06 06:33:08;;;;;;;24.40;14.50;;;;;;;;;;5010504;28;20061;-65
2022/05/06 06:35:35;;;;;;;24.05;15.02;;;;;;;;;;5014328;28;20112;-65
2022/05/06 06:38:01;;;;;;;24.42;15.45;;;;;;;;;;5002160;28;20556;-65
2022/05/06 06:40:27;;;;;;;22.58;13.98;;;;;;;;;;5017339;28;20056;-65
2022/05/06 06:42:53;;;;;;;22.45;14.02;;;;;;;;;;5004615;28;20454;-65
2022/05/06 06:45:20;;;;;;;25.15;15.77;;;;;;;;;;5016331;28;20505;-65
2022/05/06 06:47:46;;;;;;;25.38;16.33;;;;;;;;;;4999471;28;20107;-65
2022/05/06 06:50:12;;;;;;;26.05;16.08;;;;;;;;;;5019623;28;20668;-65
2022/05/06 06:52:38;;;;;;;25.88;15.80;;;;;;;;;;5008843;28;20053;-65
2022/05/06 06:55:05;;;;;;;25.45;17.63;;;;;;;;;;5017759;28;20045;-65
2022/05/06 06:57:31;;;;;;;25.45;17.67;;;;;;;;;;4998469;28;20046;-65
2022/05/06 06:59:57;;;;;;;25.58;16.85;;;;;;;;;;5020220;28;20042;-65
2022/05/06 07:02:23;;;;;;;22.55;16.48;;;;;;;;;;5018294;28;20042;-65
2022/05/06 07:04:51;;;;;;;25.42;16.55;;;;;;;;;;5019195;28;20042;-65
2022/05/06 07:12:47;;;;;;;20.52;15.43;;;;;;;;;;5004871;28;20111;-65
2022/05/06 07:15:13;;;;;;;22.30;16.25;;;;;;;;;;5002234;28;20413;-65
2022/05/06 07:17:39;;;;;;;17.98;14.20;;;;;;;;;;5016830;28;20474;-65
2022/05/06 07:20:05;;;;;;;16.35;12.73;;;;;;;;;;5019842;28;20042;-65
2022/05/06 07:22:32;;;;;;;15.10;12.10;;;;;;;;;;5026269;28;20045;-65
2022/05/06 07:24:58;;;;;;;16.55;13.27;;;;;;;;;;5008465;28;20048;-65
2022/05/06 07:27:25;;;;;;;16.90;13.20;;;;;;;;;;4987985;28;20057;-65
2022/05/06 07:29:51;;;;;;;16.48;13.13;;;;;;;;;;5019029;28;20072;-65
2022/05/06 07:32:18;;;;;;;19.58;14.05;;;;;;;;;;5017364;28;20049;-65
2022/05/06 07:34:44;;;;;;;18.38;13.40;;;;;;;;;;5017649;28;20220;-65
2022/05/06 07:37:10;;;;;;;18.63;13.13;;;;;;;;;;5017732;28;20045;-65
2022/05/06 07:39:36;;;;;;;16.60;12.68;;;;;;;;;;5017293;28;20045;-65
2022/05/06 07:42:03;;;;;;;17.70;13.60;;;;;;;;;;5000687;28;20045;-65
2022/05/06 07:44:29;;;;;;;15.55;12.25;;;;;;;;;;5022701;28;20045;-65
2022/05/06 07:46:55;;;;;;;14.45;11.52;;;;;;;;;;5021385;28;20029;-65
2022/05/06 07:49:23;;;;;;;13.30;10.30;;;;;;;;;;5019309;28;20037;-65
2022/05/06 07:51:49;;;;;;;19.50;11.07;;;;;;;;;;5013064;28;20458;-65
2022/05/06 07:54:15;;;;;;;15.40;12.45;;;;;;;;;;5019277;28;20128;-65
2022/05/06 07:56:41;;;;;;;15.07;10.98;;;;;;;;;;5024850;28;20064;-65
2022/05/06 07:59:08;;;;;;;12.70;10.35;;;;;;;;;;5019652;28;20051;-65
2022/05/06 08:04:35;;;;;;;14.93;11.63;;;;;;;;;;5016494;28;20416;-64
2022/05/06 08:07:02;;;;;;;15.20;11.93;;;;;;;;;;5012795;28;20494;-65
2022/05/06 08:09:28;;;;;;;16.27;11.38;;;;;;;;;;5013176;28;20450;-65
2022/05/06 08:11:54;;;;;;;16.58;12.82;;;;;;;;;;5015572;28;20061;-65
2022/05/06 08:14:20;;;;;;;16.08;11.98;;;;;;;;;;4996299;28;20598;-65
2022/05/06 08:16:48;;;;;;;14.10;10.63;;;;;;;;;;5002263;28;20520;-65
2022/05/06 08:19:14;;;;;;;12.90;9.60;;;;;;;;;;5017023;28;20083;-65
2022/05/06 08:21:40;;;;;;;12.27;9.75;;;;;;;;;;4999329;28;20745;-65
2022/05/06 08:24:07;;;;;;;10.50;8.90;;;;;;;;;;5002095;28;20046;-65
2022/05/06 08:26:33;;;;;;;12.57;8.93;;;;;;;;;;5016205;28;20888;-65
2022/05/06 08:28:59;;;;;;;8.30;6.57;;;;;;;;;;4999127;28;20143;-65
2022/05/06 08:31:27;;;;;;;9.73;7.03;;;;;;;;;;5001673;28;20049;-65
2022/05/06 08:33:54;;;;;;;9.35;7.05;;;;;;;;;;5013850;28;20061;-65
2022/05/06 08:36:20;;;;;;;6.90;5.47;;;;;;;;;;5017946;28;20136;-64
2022/05/06 08:38:48;;;;;;;6.22;4.90;;;;;;;;;;5014230;28;20509;-65
2022/05/06 08:41:15;;;;;;;6.70;4.63;;;;;;;;;;5018531;28;20463;-65
2022/05/06 08:43:41;;;;;;;6.97;5.68;;;;;;;;;;5021192;28;20075;-65
2022/05/06 08:50:50;;;;;;;5.32;4.55;;;;;;;;;;5019536;28;20042;-65
2022/05/06 08:51:45;;;;;;;5.90;4.93;;;;;;;;;;5020552;28;20110;-65
2022/05/06 08:54:11;;;;;;;6.93;5.65;;;;;;;;;;5014966;28;20045;-66
2022/05/06 08:56:38;;;;;;;7.05;4.18;;;;;;;;;;5013816;28;20100;-65
2022/05/06 08:59:04;;;;;;;5.95;4.63;;;;;;;;;;5017885;28;20049;-65
2022/05/06 09:01:30;;;;;;;6.20;4.55;;;;;;;;;;5004296;28;20037;-65
2022/05/06 09:03:56;;;;;;;6.30;4.82;;;;;;;;;;5017462;28;20412;-65
2022/05/06 09:06:27;;;;;;;7.25;5.10;;;;;;;;;;4993732;28;20042;-65
2022/05/06 09:08:53;;;;;;;11.82;6.03;;;;;;;;;;5018405;28;20049;-65
2022/05/06 09:14:05;;;;;;;8.63;5.22;;;;;;;;;;5011032;28;20048;-65
2022/05/06 09:16:44;;;;;;;10.48;4.65;;;;;;;;;;5003340;28;20257;-65
2022/05/06 09:19:11;;;;;;;6.05;4.78;;;;;;;;;;5000013;28;20057;-65
2022/05/06 09:21:38;;;;;;;7.43;4.53;;;;;;;;;;5005099;28;20044;-65
2022/05/06 09:24:20;;;;;;;6.57;5.22;;;;;;;;;;5003777;28;20056;-66
2022/05/06 09:26:57;;;;;;;6.68;4.63;;;;;;;;;;5019029;28;20129;-65
2022/05/06 09:29:33;;;;;;;7.07;4.78;;;;;;;;;;5017689;28;20103;-65
2022/05/06 09:32:13;;;;;;;8.40;4.82;;;;;;;;;;5013502;28;20115;-65
2022/05/06 09:34:40;;;;;;;8.23;5.05;;;;;;;;;;4999707;28;20068;-65
2022/05/06 09:37:06;;;;;;;5.80;4.20;;;;;;;;;;4995639;28;20056;-65
2022/05/06 09:39:33;;;;;;;5.57;4.50;;;;;;;;;;5004301;28;20045;-65
2022/05/06 09:42:04;;;;;;;6.00;4.00;;;;;;;;;;5015249;28;20117;-65
2022/05/06 09:44:30;;;;;;;6.28;4.28;;;;;;;;;;5011444;28;20497;-65
2022/05/06 09:47:15;;;;;;;5.28;4.03;;;;;;;;;;5019123;28;20049;-65
2022/05/06 09:49:43;;;;;;;7.72;4.40;;;;;;;;;;5015270;28;20525;-65
2022/05/06 09:52:11;;;;;;;7.10;4.07;;;;;;;;;;5013420;28;20060;-65
2022/05/06 09:54:37;;;;;;;4.53;3.50;;;;;;;;;;5014861;28;20038;-65
2022/05/06 09:57:05;;;;;;;5.40;3.45;;;;;;;;;;5012365;28;20068;-66
2022/05/06 09:59:31;;;;;;;6.90;3.28;;;;;;;;;;4998354;28;20493;-64
2022/05/06 10:01:57;;;;;;;6.65;4.10;;;;;;;;;;5016718;28;20053;-65
2022/05/06 10:04:23;;;;;;;6.18;3.47;;;;;;;;;;4999763;28;20059;-65
2022/05/06 10:06:50;;;;;;;5.50;3.60;;;;;;;;;;5020810;28;20034;-65
2022/05/06 10:09:20;;;;;;;4.55;3.40;;;;;;;;;;5015372;28;20096;-65
2022/05/06 10:11:47;;;;;;;5.75;3.45;;;;;;;;;;5014774;28;20061;-66
2022/05/06 10:14:15;;;;;;;6.57;4.13;;;;;;;;;;5012657;28;20049;-66
2022/05/06 10:16:42;;;;;;;5.65;3.97;;;;;;;;;;5001988;28;20048;-64
2022/05/06 10:19:26;;;;;;;7.75;4.53;;;;;;;;;;5020070;28;20124;-64
2022/05/06 10:21:52;;;;;;;6.70;4.80;;;;;;;;;;5017362;28;20417;-64
2022/05/06 10:24:20;;;;;;;6.60;4.65;;;;;;;;;;5024377;28;20083;-64
2022/05/06 10:26:47;;;;;;;5.82;4.47;;;;;;;;;;5017534;28;20133;-64
2022/05/06 10:32:25;;;;;;;7.07;5.32;;;;;;;;;;5021225;28;20062;-78
2022/05/06 10:34:58;;;;;;;6.45;4.93;;;;;;;;;;5005710;28;20049;-65
2022/05/06 10:37:26;;;;;;;7.22;4.68;;;;;;;;;;5024302;28;20065;-64
2022/05/06 10:39:53;;;;;;;7.13;4.82;;;;;;;;;;5017860;28;20144;-65
2022/05/06 10:42:19;;;;;;;6.22;4.78;;;;;;;;;;5018964;28;20092;-64
2022/05/06 10:44:47;;;;;;;7.60;4.97;;;;;;;;;;5016522;28;20042;-65
2022/05/06 10:47:13;;;;;;;6.82;5.15;;;;;;;;;;5005853;28;20123;-64
2022/05/06 10:49:39;;;;;;;7.88;5.47;;;;;;;;;;5018459;28;20038;-65
2022/05/06 10:52:14;;;;;;;8.75;6.13;;;;;;;;;;5004716;28;20046;-64
2022/05/06 10:54:41;;;;;;;10.15;6.22;;;;;;;;;;5014515;28;20042;-64
2022/05/06 10:57:08;;;;;;;9.38;6.38;;;;;;;;;;5021436;28;20086;-64
2022/05/06 10:59:52;;;;;;;7.35;5.70;;;;;;;;;;5003460;28;20045;-65
2022/05/06 11:02:21;;;;;;;7.47;5.57;;;;;;;;;;5018806;28;20118;-64
2022/05/06 11:04:55;;;;;;;7.45;5.60;;;;;;;;;;5019050;28;20049;-65
2022/05/06 11:07:21;;;;;;;;;;;;;;;;;;5020610;28;20073;-65
2022/05/06 11:09:47;;;;;;;8.25;6.00;;;;;;;;;;5019223;28;20324;-64
2022/05/06 11:12:29;;;;;;;9.57;6.05;;;;;;;;;;5019937;28;20046;-64
2022/05/06 11:14:55;;;;;;;7.50;5.10;;;;;;;;;;5019419;28;20509;-65
2022/05/06 11:17:22;;;;;;;6.75;5.03;;;;;;;;;;5000894;28;20397;-64
2022/05/06 11:19:49;;;;;;;7.82;4.68;;;;;;;;;;5017244;28;20100;-64
2022/05/06 11:22:15;;;;;;;7.90;4.63;;;;;;;;;;5006552;28;20496;-64
2022/05/06 11:24:41;;;;;;;8.02;5.18;;;;;;;;;;5015270;28;20053;-65
2022/05/06 11:27:19;;;;;;;8.32;4.97;;;;;;;;;;5018496;28;20442;-64
2022/05/06 11:29:47;;;;;;;7.50;5.28;;;;;;;;;;5019376;28;20050;-64
2022/05/06 11:32:14;;;;;;;7.07;5.13;;;;;;;;;;5019966;28;20362;-64
2022/05/06 11:34:47;;;;;;;42.05;23.42;;;;;;;;;;5016056;28;20086;-64
2022/05/06 11:37:21;;;;;;;6.30;4.78;;;;;;;;;;5019805;28;20583;-64
2022/05/06 11:39:49;;;;;;;6.63;5.05;;;;;;;;;;5000866;28;20517;-65
2022/05/06 11:42:19;;;;;;;14.68;7.30;;;;;;;;;;5001791;28;20053;-64
2022/05/06 11:47:39;;;;;;;7.18;4.18;;;;;;;;;;5007886;28;20486;-64
2022/05/06 11:50:05;;;;;;;15.00;5.07;;;;;;;;;;5016779;28;20496;-65
2022/05/06 11:52:33;;;;;;;56.83;12.38;;;;;;;;;;5021743;28;20044;-65
2022/05/06 11:54:59;;;;;;;7.68;3.80;;;;;;;;;;5005008;28;20458;-65
2022/05/06 11:57:25;;;;;;;7.20;5.32;;;;;;;;;;5015670;28;20125;-64
2022/05/06 11:59:52;;;;;;;15.68;6.50;;;;;;;;;;5007878;28;20133;-64
2022/05/06 12:02:18;;;;;;;7.35;5.57;;;;;;;;;;5018921;28;20121;-65
2022/05/06 12:04:44;;;;;;;10.57;6.00;;;;;;;;;;4995159;28;20041;-64
2022/05/06 12:07:10;;;;;;;7.45;5.88;;;;;;;;;;5017578;28;20053;-65
2022/05/06 12:09:43;;;;;;;10.13;6.55;;;;;;;;;;5004660;28;20057;-64
2022/05/06 12:12:10;;;;;;;9.00;6.10;;;;;;;;;;5015699;28;20037;-64
2022/05/06 12:14:38;;;;;;;10.90;6.82;;;;;;;;;;5020862;28;20041;-65
2022/05/06 12:17:05;;;;;;;9.73;6.90;;;;;;;;;;5020948;28;20041;-64
2022/05/06 12:19:41;;;;;;;10.65;6.53;;;;;;;;;;5014992;28;20080;-64
2022/05/06 12:22:15;;;;;;;15.45;9.10;;;;;;;;;;5017184;28;20061;-65
2022/05/06 12:24:42;;;;;;;12.55;9.23;;;;;;;;;;5017706;28;20050;-65
2022/05/06 12:27:09;;;;;;;10.45;8.15;;;;;;;;;;5020637;28;20045;-65
2022/05/06 12:29:37;;;;;;;13.38;8.10;;;;;;;;;;4998726;28;20038;-65
2022/05/06 12:32:03;;;;;;;10.65;8.23;;;;;;;;;;5016323;28;20141;-64
2022/05/06 12:34:31;;;;;;;11.70;7.88;;;;;;;;;;5013530;28;20138;-65
2022/05/06 12:37:11;;;;;;;11.00;7.40;;;;;;;;;;5015475;28;20433;-65
2022/05/06 12:39:40;;;;;;;12.88;6.93;;;;;;;;;;5014623;28;20053;-65
2022/05/06 12:42:14;;;;;;;10.52;6.88;;;;;;;;;;5012308;28;20149;-65
2022/05/06 12:44:41;;;;;;;10.23;7.25;;;;;;;;;;5008504;28;20134;-66
2022/05/06 12:49:39;;;;;;;10.73;7.20;;;;;;;;;;4993018;28;20677;-66
2022/05/06 12:50:00;;;;;;;13.23;7.53;;;;;;;;;;4995509;28;20060;-65
2022/05/06 12:52:27;;;;;;;10.27;7.15;;;;;;;;;;4982563;28;20084;-66
2022/05/06 12:54:53;;;;;;;9.65;7.50;;;;;;;;;;4992974;28;20055;-67
2022/05/06 12:57:19;;;;;;;11.48;7.57;;;;;;;;;;4980714;28;20085;-66
2022/05/06 12:59:45;;;;;;;14.98;8.45;;;;;;;;;;5015654;28;20546;-65
2022/05/06 13:02:11;;;;;;;9.45;8.07;;;;;;;;;;5011710;28;20041;-65
2022/05/06 13:04:37;;;;;;;12.85;7.45;;;;;;;;;;5021085;28;20042;-65
2022/05/06 13:07:04;;;;;;;11.65;7.93;;;;;;;;;;5017405;28;20085;-65
2022/05/06 13:09:30;;;;;;;9.65;7.65;;;;;;;;;;5007231;28;20048;-65
2022/05/06 13:11:56;;;;;;;11.43;8.07;;;;;;;;;;5016473;28;20055;-65
2022/05/06 13:14:23;;;;;;;10.68;7.85;;;;;;;;;;5017135;28;20037;-65
2022/05/06 13:16:49;;;;;;;15.85;8.85;;;;;;;;;;5028010;28;20057;-65
2022/05/06 13:19:16;;;;;;;11.20;8.13;;;;;;;;;;5012535;28;20050;-65
2022/05/06 13:21:42;;;;;;;10.20;8.38;;;;;;;;;;5016575;28;20097;-65
2022/05/06 13:24:08;;;;;;;10.82;7.90;;;;;;;;;;5018894;28;20125;-65
2022/05/06 13:26:38;;;;;;;13.27;8.65;;;;;;;;;;5019919;28;20049;-65
2022/05/06 13:29:05;;;;;;;13.68;8.85;;;;;;;;;;5017371;28;20040;-65
2022/05/06 13:31:31;;;;;;;10.38;8.35;;;;;;;;;;5003698;28;20041;-65
2022/05/06 13:33:57;;;;;;;17.58;7.78;;;;;;;;;;5015545;28;20053;-65
2022/05/06 13:36:24;;;;;;;16.02;7.78;;;;;;;;;;5017308;28;20092;-65
2022/05/06 13:38:50;;;;;;;11.20;7.53;;;;;;;;;;5012696;28;20096;-65
2022/05/06 13:41:16;;;;;;;12.65;8.02;;;;;;;;;;5011854;28;20559;-65
2022/05/06 13:43:43;;;;;;;15.50;8.88;;;;;;;;;;5013596;28;20053;-65
2022/05/06 13:46:10;;;;;;;11.10;8.55;;;;;;;;;;5014486;28;20049;-65
2022/05/06 13:48:36;;;;;;;12.48;8.35;;;;;;;;;;5000811;28;20449;-65
2022/05/06 13:51:04;;;;;;;13.48;8.15;;;;;;;;;;5012350;28;20398;-65
2022/05/06 13:53:30;;;;;;;14.18;7.72;;;;;;;;;;5013063;28;20209;-65
2022/05/06 14:01:26;;;;;;;12.82;6.90;;;;;;;;;;5021627;28;20042;-65
2022/05/06 14:03:52;;;;;;;12.38;7.53;;;;;;;;;;5006773;28;20156;-67
2022/05/06 14:06:18;;;;;;;14.48;7.72;;;;;;;;;;4990548;28;20136;-68
2022/05/06 14:08:44;;;;;;;14.60;8.80;;;;;;;;;;4991022;28;20053;-68
2022/05/06 14:11:10;;;;;;;11.77;7.72;;;;;;;;;;4992164;28;20050;-68
2022/05/06 14:13:37;;;;;;;11.75;7.70;;;;;;;;;;4989522;28;20037;-67
2022/05/06 14:16:03;;;;;;;13.25;7.55;;;;;;;;;;4993132;28;20041;-67
2022/05/06 14:18:29;;;;;;;12.98;8.02;;;;;;;;;;4993252;28;21035;-68
2022/05/06 14:20:56;;;;;;;11.38;6.90;;;;;;;;;;4995456;28;20069;-68
2022/05/06 14:23:24;;;;;;;12.18;7.10;;;;;;;;;;4975368;28;20065;-68
2022/05/06 14:25:51;;;;;;;9.85;7.18;;;;;;;;;;4986093;28;20057;-71
2022/05/06 14:28:18;;;;;;;10.35;6.95;;;;;;;;;;4991534;28;21219;-67
2022/05/06 14:30:44;;;;;;;12.18;7.63;;;;;;;;;;4961328;28;20049;-67
2022/05/06 14:33:10;;;;;;;12.75;8.40;;;;;;;;;;4990067;28;21019;-69
2022/05/06 14:35:37;;;;;;;11.88;7.25;;;;;;;;;;4993108;28;21927;-68
2022/05/06 14:38:04;;;;;;;14.00;8.07;;;;;;;;;;4991507;28;20053;-68
2022/05/06 14:40:31;;;;;;;10.95;7.13;;;;;;;;;;4994169;28;20543;-68
2022/05/06 14:42:58;;;;;;;10.77;6.72;;;;;;;;;;4979351;28;20547;-67
2022/05/06 14:45:25;;;;;;;12.02;7.07;;;;;;;;;;4972538;28;20038;-68
2022/05/06 14:47:51;;;;;;;10.18;7.20;;;;;;;;;;5002544;28;20402;-67
2022/05/06 14:50:17;;;;;;;11.32;7.10;;;;;;;;;;5016485;28;20088;-67
2022/05/06 14:52:45;;;;;;;14.10;8.35;;;;;;;;;;5006440;28;20042;-67
2022/05/06 14:55:11;;;;;;;11.73;7.90;;;;;;;;;;5017266;28;20042;-67
2022/05/06 14:57:37;;;;;;;12.20;8.00;;;;;;;;;;5004845;28;20481;-67
2022/05/06 15:00:05;;;;;;;11.15;8.38;;;;;;;;;;5002134;28;20691;-67
2022/05/06 15:02:31;;;;;;;9.52;7.53;;;;;;;;;;5012694;28;20990;-67
2022/05/06 15:04:57;;;;;;;10.60;8.13;;;;;;;;;;5015514;28;20339;-66
2022/05/06 15:07:23;;;;;;;13.30;8.63;;;;;;;;;;5023222;28;20042;-67
2022/05/06 15:09:49;;;;;;;11.35;8.27;;;;;;;;;;5006883;28;20363;-68
2022/05/06 15:12:15;;;;;;;14.88;9.05;;;;;;;;;;5020392;28;20354;-67